Time;durP1;ratioP1;P1;durP2;ratioP2;P2;SDS_P1;SDS_P2;PMS_P1;PMS_P2;Temp;Humidity;BMP_temperature;BMP_pressure;BME280_temperature;BME280_humidity;BME280_pressure;Samples;Min_cycle;Max_cycle;Signal;HPM_P1;HPM_P2
2023/05/30 00:00:43;;;;;;;15.90;3.85;;;10.90;99.90;;;;;;5060016;28;20044;-57
2023/05/30 00:03:11;;;;;;;14.48;2.75;;;10.80;99.90;;;;;;5068825;28;20053;-58
2023/05/30 00:05:40;;;;;;;13.35;3.05;;;10.80;99.90;;;;;;5069924;28;20043;-58
2023/05/30 00:08:08;;;;;;;17.58;2.58;;;10.60;99.90;;;;;;5070868;28;20043;-58
2023/05/30 00:10:37;;;;;;;14.65;2.45;;;10.60;99.90;;;;;;5070461;28;20070;-58
2023/05/30 00:13:04;;;;;;;11.70;2.65;;;12.80;99.90;;;;;;5066998;28;20079;-58
2023/05/30 00:15:33;;;;;;;7.97;2.53;;;10.50;99.90;;;;;;5049830;28;20048;-57
2023/05/30 00:18:02;;;;;;;11.05;2.67;;;10.30;99.90;;;;;;5059342;28;20412;-58
2023/05/30 00:20:33;;;;;;;12.80;2.13;;;10.30;99.90;;;;;;5064380;28;20051;-57
2023/05/30 00:23:01;;;;;;;11.23;2.63;;;10.30;99.90;;;;;;5065007;28;20049;-57
2023/05/30 00:25:32;;;;;;;16.85;3.85;;;10.20;99.90;;;;;;5055281;28;20329;-59
2023/05/30 00:28:00;;;;;;;18.13;4.00;;;10.10;99.90;;;;;;5067575;28;20507;-57
2023/05/30 00:30:31;;;;;;;13.73;2.58;;;10.00;99.90;;;;;;5061423;28;20049;-58
2023/05/30 00:33:02;;;;;;;10.80;2.80;;;10.00;99.90;;;;;;5054978;28;20045;-57
2023/05/30 00:35:30;;;;;;;14.43;2.72;;;10.00;99.90;;;;;;5058997;28;20484;-57
2023/05/30 00:37:59;;;;;;;8.63;2.45;;;9.90;99.90;;;;;;5063374;28;20048;-58
2023/05/30 00:40:27;;;;;;;13.77;3.65;;;9.90;99.90;;;;;;5062582;28;20488;-58
2023/05/30 00:42:57;;;;;;;15.98;3.10;;;10.00;99.90;;;;;;5059498;28;20052;-57
2023/05/30 00:45:25;;;;;;;10.98;2.88;;;10.00;99.90;;;;;;5055715;28;20041;-58
2023/05/30 00:47:53;;;;;;;15.07;2.72;;;9.90;99.90;;;;;;5051486;28;20044;-56
2023/05/30 00:50:25;;;;;;;12.52;2.60;;;10.00;99.90;;;;;;5063499;28;20048;-59
2023/05/30 00:52:54;;;;;;;17.30;2.97;;;9.90;99.90;;;;;;5062263;28;20531;-58
2023/05/30 00:55:22;;;;;;;11.75;2.40;;;9.90;99.90;;;;;;5065986;28;20135;-60
2023/05/30 00:57:52;;;;;;;16.63;3.05;;;9.80;99.90;;;;;;5063745;28;20597;-58
2023/05/30 01:00:22;;;;;;;18.75;3.10;;;9.80;99.90;;;;;;5056161;28;20052;-58
2023/05/30 01:02:51;;;;;;;17.10;3.63;;;9.70;99.90;;;;;;5047048;28;20053;-58
2023/05/30 01:05:24;;;;;;;10.47;3.33;;;9.70;99.90;;;;;;5063492;28;20051;-58
2023/05/30 01:07:53;;;;;;;17.52;3.50;;;9.60;99.90;;;;;;5065213;28;20300;-58
2023/05/30 01:10:22;;;;;;;13.10;2.45;;;9.70;99.90;;;;;;5047525;28;20045;-56
2023/05/30 01:13:18;;;;;;;14.95;3.10;;;9.60;99.90;;;;;;5064349;28;20041;-57
2023/05/30 01:16:11;;;;;;;13.88;2.50;;;9.60;99.90;;;;;;5056897;28;20381;-58
2023/05/30 01:19:01;;;;;;;10.13;2.78;;;9.50;99.90;;;;;;5063643;28;20037;-58
2023/05/30 01:21:31;;;;;;;11.02;2.67;;;9.40;99.90;;;;;;5060923;28;20400;-57
2023/05/30 01:24:21;;;;;;;16.48;3.00;;;9.40;99.90;;;;;;5065223;28;20515;-58
2023/05/30 01:26:55;;;;;;;14.27;2.63;;;9.40;99.90;;;;;;5067902;28;20059;-57
2023/05/30 01:29:24;;;;;;;12.68;2.85;;;9.40;99.90;;;;;;5064828;28;20048;-58
2023/05/30 01:31:55;;;;;;;13.57;2.88;;;9.30;99.90;;;;;;5051624;28;20420;-58
2023/05/30 01:34:23;;;;;;;16.05;3.63;;;9.30;99.90;;;;;;5052767;28;20039;-57
2023/05/30 01:36:51;;;;;;;13.13;3.65;;;9.20;99.90;;;;;;5048774;28;20052;-56
2023/05/30 01:39:20;;;;;;;30.38;3.78;;;9.20;99.90;;;;;;5054338;28;20032;-57
2023/05/30 01:42:19;;;;;;;11.30;2.70;;;9.10;99.90;;;;;;5051927;28;20497;-57
2023/05/30 01:45:11;;;;;;;15.02;2.85;;;9.10;99.90;;;;;;5053809;28;20045;-56
2023/05/30 01:47:58;;;;;;;20.42;3.60;;;9.00;99.90;;;;;;5063056;28;20048;-57
2023/05/30 01:50:37;;;;;;;21.23;3.50;;;9.00;99.90;;;;;;5070244;28;20518;-57
2023/05/30 01:53:11;;;;;;;19.13;2.83;;;9.00;99.90;;;;;;5059008;28;20500;-57
2023/05/30 01:55:41;;;;;;;9.52;3.15;;;8.90;99.90;;;;;;5050629;28;20053;-56
2023/05/30 01:58:11;;;;;;;6.43;2.88;;;8.80;99.90;;;;;;5046143;28;20041;-57
2023/05/30 02:00:40;;;;;;;14.20;3.38;;;8.80;99.90;;;;;;5051737;28;20044;-56
2023/05/30 02:03:07;;;;;;;13.73;2.88;;;8.80;99.90;;;;;;5059857;28;20408;-56
2023/05/30 02:05:35;;;;;;;11.77;4.50;;;8.70;99.90;;;;;;5064319;28;20045;-56
2023/05/30 02:08:04;;;;;;;13.65;4.03;;;8.70;99.90;;;;;;5064843;28;20056;-57
2023/05/30 02:10:32;;;;;;;20.33;3.95;;;8.70;99.90;;;;;;5068029;28;20040;-58
2023/05/30 02:13:00;;;;;;;24.15;5.50;;;8.70;99.90;;;;;;5055760;28;20397;-56
2023/05/30 02:15:28;;;;;;;12.65;3.50;;;8.60;99.90;;;;;;5061925;28;20488;-58
2023/05/30 02:17:59;;;;;;;10.10;2.90;;;8.60;99.90;;;;;;5055674;28;20049;-57
2023/05/30 02:20:27;;;;;;;21.42;4.35;;;8.60;99.90;;;;;;5062843;28;20492;-57
2023/05/30 02:22:55;;;;;;;15.45;3.40;;;8.60;99.90;;;;;;5055349;28;20037;-57
2023/05/30 02:25:23;;;;;;;14.55;3.70;;;8.60;99.90;;;;;;5072187;28;20056;-57
2023/05/30 02:27:51;;;;;;;17.58;3.38;;;8.60;99.90;;;;;;5068928;28;20044;-57
2023/05/30 02:30:20;;;;;;;18.48;4.07;;;8.60;99.90;;;;;;5071955;28;20045;-57
2023/05/30 02:32:48;;;;;;;13.93;4.15;;;8.60;99.90;;;;;;5073970;28;20040;-56
2023/05/30 02:35:19;;;;;;;14.60;4.55;;;8.60;99.90;;;;;;5073070;28;20060;-56
2023/05/30 02:37:47;;;;;;;11.02;3.78;;;8.60;99.90;;;;;;5072263;28;20041;-57
2023/05/30 02:40:16;;;;;;;16.73;3.72;;;8.60;99.90;;;;;;5072341;28;20533;-57
2023/05/30 02:42:43;;;;;;;16.10;3.33;;;8.60;99.90;;;;;;5060848;28;20040;-56
2023/05/30 02:45:12;;;;;;;13.73;3.15;;;8.70;99.90;;;;;;5053899;28;20487;-56
2023/05/30 02:47:43;;;;;;;14.60;3.33;;;8.70;99.90;;;;;;5072633;28;20036;-56
2023/05/30 02:50:11;;;;;;;23.50;4.43;;;8.70;99.90;;;;;;5073861;28;20044;-56
2023/05/30 02:52:40;;;;;;;14.55;4.30;;;8.70;99.90;;;;;;5069863;28;20049;-55
2023/05/30 02:55:08;;;;;;;30.58;5.60;;;8.70;99.90;;;;;;5074609;28;20067;-56
2023/05/30 02:57:55;;;;;;;14.88;3.60;;;8.70;99.90;;;;;;5070550;28;20044;-57
2023/05/30 03:00:41;;;;;;;21.77;4.10;;;8.70;99.90;;;;;;5062720;28;20047;-57
2023/05/30 03:03:19;;;;;;;15.02;4.72;;;8.60;99.90;;;;;;5064634;28;20068;-57
2023/05/30 03:05:49;;;;;;;9.35;3.30;;;8.60;99.90;;;;;;5072711;28;20044;-57
2023/05/30 03:08:44;;;;;;;13.93;3.75;;;8.60;99.90;;;;;;5072590;28;20048;-57
2023/05/30 03:11:13;;;;;;;15.23;3.67;;;8.60;99.90;;;;;;5068415;28;20044;-57
2023/05/30 03:13:41;;;;;;;15.90;3.95;;;8.50;99.90;;;;;;5054420;28;20395;-56
2023/05/30 03:16:09;;;;;;;16.75;4.18;;;8.40;99.90;;;;;;5056717;28;20047;-56
2023/05/30 03:18:39;;;;;;;10.80;4.35;;;8.40;99.90;;;;;;5065151;28;20495;-56
2023/05/30 03:21:10;;;;;;;11.25;3.45;;;8.30;99.90;;;;;;5072079;28;20048;-56
2023/05/30 03:23:38;;;;;;;13.60;3.50;;;8.30;99.90;;;;;;5053741;28;20044;-57
2023/05/30 03:26:07;;;;;;;10.90;3.22;;;8.20;99.90;;;;;;5071866;28;20345;-57
2023/05/30 03:28:35;;;;;;;15.25;3.45;;;8.20;99.90;;;;;;5072835;28;20040;-57
2023/05/30 03:31:18;;;;;;;17.75;4.22;;;8.10;99.90;;;;;;5059238;28;20051;-57
2023/05/30 03:33:47;;;;;;;25.10;4.70;;;8.10;99.90;;;;;;5071663;28;20040;-56
2023/05/30 03:36:17;;;;;;;22.25;5.38;;;8.20;99.90;;;;;;5047573;28;20049;-57
2023/05/30 03:38:45;;;;;;;10.07;3.17;;;8.20;99.90;;;;;;5056639;28;20040;-57
2023/05/30 03:41:15;;;;;;;13.30;3.97;;;8.30;99.90;;;;;;5056101;28;20177;-58
2023/05/30 03:43:42;;;;;;;13.48;3.45;;;8.30;99.90;;;;;;5072752;28;20055;-57
2023/05/30 03:46:11;;;;;;;14.57;3.53;;;8.40;99.90;;;;;;5072739;28;20040;-57
2023/05/30 03:48:39;;;;;;;12.98;4.05;;;8.50;99.90;;;;;;5070930;28;20056;-56
2023/05/30 03:51:06;;;;;;;17.50;3.90;;;8.60;99.90;;;;;;5063039;28;20049;-56
2023/05/30 03:53:34;;;;;;;14.20;3.60;;;8.70;99.90;;;;;;5071628;28;20056;-56
2023/05/30 03:56:02;;;;;;;15.57;4.10;;;8.70;99.90;;;;;;5071217;28;20045;-58
2023/05/30 03:58:30;;;;;;;7.32;3.03;;;8.80;99.90;;;;;;5055681;28;20041;-57
2023/05/30 04:01:01;;;;;;;15.65;4.63;;;8.90;99.90;;;;;;5073285;28;20049;-57
2023/05/30 04:03:29;;;;;;;13.27;4.35;;;9.10;99.90;;;;;;5070875;28;20036;-56
2023/05/30 04:05:58;;;;;;;26.65;5.00;;;9.10;99.90;;;;;;5070913;28;20044;-57
2023/05/30 04:08:26;;;;;;;22.95;4.63;;;9.10;99.90;;;;;;5070061;28;20041;-57
2023/05/30 04:10:54;;;;;;;23.60;5.18;;;9.20;99.90;;;;;;5073492;28;20044;-56
2023/05/30 04:13:22;;;;;;;22.98;4.85;;;9.30;99.90;;;;;;5071186;28;20040;-56
2023/05/30 04:15:51;;;;;;;17.27;4.63;;;9.30;99.90;;;;;;5071533;28;20381;-57
2023/05/30 04:18:20;;;;;;;13.70;5.13;;;9.50;99.90;;;;;;5064990;28;20041;-56
2023/05/30 04:20:48;;;;;;;18.30;6.18;;;9.50;99.90;;;;;;5039242;28;20408;-56
2023/05/30 04:23:16;;;;;;;21.80;5.38;;;9.50;99.90;;;;;;5057891;28;20420;-57
2023/05/30 04:25:44;;;;;;;19.25;6.15;;;9.60;99.90;;;;;;5070306;28;20032;-57
2023/05/30 04:28:16;;;;;;;15.25;5.78;;;9.60;99.90;;;;;;5071045;28;20058;-57
2023/05/30 04:30:48;;;;;;;20.35;6.72;;;9.70;99.90;;;;;;5058556;28;20052;-57
2023/05/30 04:33:19;;;;;;;26.63;8.90;;;9.70;99.90;;;;;;5054867;28;20041;-57
2023/05/30 04:35:48;;;;;;;15.63;6.93;;;9.80;99.90;;;;;;5070987;28;20507;-58
2023/05/30 04:38:19;;;;;;;17.55;6.20;;;9.80;99.90;;;;;;5070008;28;20035;-57
2023/05/30 04:40:51;;;;;;;20.15;7.05;;;9.80;99.90;;;;;;5069839;28;20045;-57
2023/05/30 04:43:19;;;;;;;20.55;7.00;;;9.80;99.90;;;;;;5052406;28;20049;-57
2023/05/30 04:45:49;;;;;;;19.17;6.95;;;9.90;99.90;;;;;;5065740;28;20056;-57
2023/05/30 04:48:34;;;;;;;16.20;7.22;;;9.90;99.90;;;;;;5048873;28;20035;-56
2023/05/30 04:51:02;;;;;;;17.33;5.78;;;9.90;99.90;;;;;;5062948;28;20032;-57
2023/05/30 04:53:33;;;;;;;16.65;7.55;;;9.90;99.90;;;;;;5059876;28;20032;-57
2023/05/30 04:56:00;;;;;;;23.35;7.82;;;9.90;99.90;;;;;;5062836;28;20048;-58
2023/05/30 04:58:30;;;;;;;20.23;6.40;;;9.90;99.90;;;;;;5068075;28;20055;-59
2023/05/30 05:00:59;;;;;;;21.80;6.85;;;9.90;99.90;;;;;;5066632;28;20499;-57
2023/05/30 05:03:27;;;;;;;25.73;6.70;;;9.90;99.90;;;;;;5051183;28;20044;-57
2023/05/30 05:05:56;;;;;;;21.00;7.38;;;10.00;99.90;;;;;;5060479;28;20048;-58
2023/05/30 05:08:26;;;;;;;28.60;7.43;;;10.10;99.90;;;;;;5064526;28;20055;-57
2023/05/30 05:10:54;;;;;;;19.73;7.10;;;10.00;99.90;;;;;;5063397;28;20053;-57
2023/05/30 05:13:22;;;;;;;15.30;6.25;;;10.10;99.90;;;;;;5055551;28;20045;-57
2023/05/30 05:15:50;;;;;;;22.58;7.15;;;10.20;99.90;;;;;;5062955;28;20036;-57
2023/05/30 05:18:18;;;;;;;16.25;6.95;;;10.30;99.90;;;;;;5060555;28;20045;-57
2023/05/30 05:20:46;;;;;;;16.33;6.88;;;10.30;99.90;;;;;;5045319;28;20484;-58
2023/05/30 05:23:13;;;;;;;24.75;7.82;;;10.30;99.90;;;;;;5063646;28;20053;-57
2023/05/30 05:25:41;;;;;;;21.65;7.70;;;10.30;99.90;;;;;;5065501;28;20538;-56
2023/05/30 05:28:09;;;;;;;21.83;8.60;;;10.40;99.90;;;;;;5060396;28;20488;-56
2023/05/30 05:30:37;;;;;;;23.48;7.20;;;10.40;99.90;;;;;;5047734;28;20493;-57
2023/05/30 05:33:05;;;;;;;23.23;8.73;;;10.40;99.90;;;;;;5048399;28;20041;-57
2023/05/30 05:35:34;;;;;;;17.70;6.80;;;10.40;99.90;;;;;;5068030;28;20512;-58
2023/05/30 05:38:02;;;;;;;15.52;5.82;;;10.40;99.90;;;;;;5062423;28;20040;-57
2023/05/30 05:40:30;;;;;;;15.18;5.93;;;10.40;99.90;;;;;;5063008;28;20037;-57
2023/05/30 05:42:58;;;;;;;13.43;6.15;;;10.50;99.90;;;;;;5078160;28;20044;-58
2023/05/30 05:45:26;;;;;;;17.83;6.10;;;10.50;99.90;;;;;;5081478;28;20048;-57
2023/05/30 05:47:54;;;;;;;16.20;6.85;;;10.50;99.90;;;;;;5062294;28;20040;-57
2023/05/30 05:50:21;;;;;;;21.08;5.68;;;10.50;99.90;;;;;;5044556;28;20594;-57
2023/05/30 05:52:50;;;;;;;19.33;5.88;;;10.60;99.90;;;;;;5061276;28;20045;-57
2023/05/30 05:55:18;;;;;;;11.57;5.13;;;10.70;99.90;;;;;;5064401;28;20052;-58
2023/05/30 05:57:46;;;;;;;15.70;5.53;;;10.80;99.90;;;;;;5064796;28;20036;-57
2023/05/30 06:00:15;;;;;;;12.13;4.30;;;10.80;99.90;;;;;;5066749;28;20047;-60
2023/05/30 06:02:43;;;;;;;13.30;4.65;;;10.90;99.90;;;;;;5064328;28;20048;-60
2023/05/30 06:05:11;;;;;;;15.07;4.30;;;11.00;99.90;;;;;;5045327;28;20053;-56
2023/05/30 06:07:39;;;;;;;12.35;3.35;;;11.00;99.90;;;;;;5065755;28;20055;-57
2023/05/30 06:10:08;;;;;;;11.98;3.78;;;11.00;99.90;;;;;;5066296;28;20047;-57
2023/05/30 06:12:36;;;;;;;14.45;4.90;;;11.10;99.90;;;;;;5066862;28;20060;-57
2023/05/30 06:15:05;;;;;;;16.55;3.90;;;11.20;99.90;;;;;;5064207;28;20400;-57
2023/05/30 06:17:34;;;;;;;15.00;5.07;;;11.20;99.90;;;;;;5059768;28;20055;-57
2023/05/30 06:20:02;;;;;;;15.32;2.95;;;11.30;99.90;;;;;;5062077;28;20037;-55
2023/05/30 06:22:30;;;;;;;15.15;3.42;;;11.40;99.90;;;;;;5072209;28;20052;-57
2023/05/30 06:24:58;;;;;;;11.88;2.90;;;11.40;99.90;;;;;;5062726;28;20052;-57
2023/05/30 06:27:26;;;;;;;13.25;2.65;;;11.50;99.90;;;;;;5059564;28;20041;-56
2023/05/30 06:29:54;;;;;;;24.00;5.80;;;11.40;99.90;;;;;;5045010;28;20055;-56
2023/05/30 06:32:21;;;;;;;16.15;2.80;;;11.40;99.90;;;;;;5056042;28;20064;-57
2023/05/30 06:34:49;;;;;;;26.30;3.58;;;11.50;99.90;;;;;;5061094;28;20052;-57
2023/05/30 06:37:17;;;;;;;14.18;2.70;;;11.60;99.90;;;;;;5054555;28;20053;-57
2023/05/30 06:39:45;;;;;;;15.10;3.00;;;;;;;;;;5051493;28;20037;-58
2023/05/30 06:42:13;;;;;;;12.23;2.53;;;11.70;99.90;;;;;;5048429;28;20233;-57
2023/05/30 06:44:47;;;;;;;16.33;2.78;;;11.80;99.90;;;;;;5076776;28;20064;-57
2023/05/30 06:47:15;;;;;;;11.98;2.65;;;11.80;99.90;;;;;;5064248;28;20052;-60
2023/05/30 06:49:43;;;;;;;13.50;3.80;;;11.80;99.90;;;;;;5061758;28;20388;-59
2023/05/30 06:52:11;;;;;;;11.80;2.88;;;11.90;99.90;;;;;;5060941;28;20060;-58
2023/05/30 06:54:39;;;;;;;15.57;3.67;;;12.00;99.90;;;;;;5060961;28;20411;-58
2023/05/30 06:57:07;;;;;;;9.30;2.05;;;12.10;99.90;;;;;;5055444;28;20053;-57
2023/05/30 06:59:35;;;;;;;10.00;2.03;;;12.10;99.90;;;;;;5056365;28;20045;-56
2023/05/30 07:02:03;;;;;;;15.07;4.05;;;12.20;99.90;;;;;;5051056;28;20045;-56
2023/05/30 07:04:31;;;;;;;10.45;2.60;;;12.20;99.90;;;;;;5055929;28;20041;-58
2023/05/30 07:06:59;;;;;;;13.00;2.90;;;12.30;99.90;;;;;;5049930;28;20071;-56
2023/05/30 07:09:27;;;;;;;8.60;2.42;;;12.40;99.90;;;;;;5068434;28;20048;-57
2023/05/30 07:11:55;;;;;;;13.55;2.38;;;12.50;99.90;;;;;;5063685;28;20511;-58
2023/05/30 07:14:23;;;;;;;6.88;2.50;;;12.50;99.90;;;;;;5062799;28;20049;-57
2023/05/30 07:16:50;;;;;;;9.20;2.63;;;12.50;99.90;;;;;;5066546;28;20402;-58
2023/05/30 07:19:19;;;;;;;10.43;2.50;;;12.50;99.90;;;;;;5062851;28;20128;-57
2023/05/30 07:21:46;;;;;;;9.02;2.20;;;12.60;99.90;;;;;;5056089;28;20072;-57
2023/05/30 07:24:14;;;;;;;14.18;2.47;;;12.60;99.90;;;;;;5066462;28;20044;-57
2023/05/30 07:26:42;;;;;;;7.97;2.20;;;12.60;99.90;;;;;;5065975;28;20057;-57
2023/05/30 07:29:10;;;;;;;8.80;2.17;;;12.60;99.90;;;;;;5060113;28;20045;-57
2023/05/30 07:31:38;;;;;;;9.85;1.95;;;12.70;99.90;;;;;;5051858;28;20480;-57
2023/05/30 07:34:06;;;;;;;15.35;2.90;;;12.80;99.90;;;;;;5074211;28;20037;-57
2023/05/30 07:36:33;;;;;;;13.52;2.63;;;12.90;99.90;;;;;;5063634;28;20052;-56
2023/05/30 07:39:01;;;;;;;10.00;2.38;;;13.00;99.90;;;;;;5070270;28;20047;-57
2023/05/30 07:41:28;;;;;;;13.25;3.70;;;13.00;99.90;;;;;;5068490;28;20052;-57
2023/05/30 07:43:56;;;;;;;11.88;2.35;;;13.10;99.90;;;;;;5062885;28;20049;-57
2023/05/30 07:46:24;;;;;;;11.93;2.42;;;;;;;;;;5057425;28;20264;-58
2023/05/30 07:48:52;;;;;;;8.05;2.15;;;13.30;99.90;;;;;;5061191;28;20040;-56
2023/05/30 07:51:22;;;;;;;9.38;2.58;;;13.40;99.90;;;;;;5070182;28;20052;-57
2023/05/30 07:53:50;;;;;;;7.78;2.50;;;13.50;99.90;;;;;;5068697;28;20479;-59
2023/05/30 07:56:17;;;;;;;7.57;2.17;;;13.60;99.90;;;;;;5059147;28;20040;-56
2023/05/30 07:58:45;;;;;;;8.40;2.10;;;13.80;99.90;;;;;;5060402;28;20045;-58
2023/05/30 08:01:13;;;;;;;14.90;2.70;;;14.00;99.90;;;;;;5061420;28;20071;-57
2023/05/30 08:03:41;;;;;;;8.05;2.42;;;14.20;99.90;;;;;;5058267;28;20503;-57
2023/05/30 08:06:10;;;;;;;13.05;2.63;;;14.30;99.90;;;;;;5050917;28;20566;-57
2023/05/30 08:08:38;;;;;;;15.63;3.33;;;14.30;99.90;;;;;;5053707;28;20041;-58
2023/05/30 08:11:06;;;;;;;10.10;2.40;;;14.30;99.90;;;;;;5065408;28;20067;-58
2023/05/30 08:13:34;;;;;;;13.73;2.20;;;14.20;99.90;;;;;;5076299;28;20510;-58
2023/05/30 08:16:02;;;;;;;14.32;2.20;;;14.20;99.90;;;;;;5067799;28;20056;-57
2023/05/30 08:18:31;;;;;;;12.30;2.67;;;14.20;99.90;;;;;;5062567;28;20044;-58
2023/05/30 08:21:01;;;;;;;10.85;3.40;;;14.20;99.90;;;;;;5068503;28;20044;-57
2023/05/30 08:23:29;;;;;;;11.73;2.72;;;14.10;99.90;;;;;;5088151;28;20495;-57
2023/05/30 08:25:58;;;;;;;13.77;2.42;;;14.20;99.90;;;;;;5086186;28;20402;-57
2023/05/30 08:28:26;;;;;;;13.25;3.40;;;14.20;99.90;;;;;;5075650;28;20051;-57
2023/05/30 08:30:54;;;;;;;11.00;2.20;;;14.20;99.90;;;;;;5049355;28;20055;-58
2023/05/30 08:33:24;;;;;;;13.60;2.85;;;14.20;99.90;;;;;;5059940;28;20056;-58
2023/05/30 08:35:52;;;;;;;9.13;2.95;;;14.30;99.90;;;;;;5049032;28;20056;-58
2023/05/30 08:38:19;;;;;;;7.53;2.25;;;14.50;99.90;;;;;;5062236;28;20503;-57
2023/05/30 08:40:47;;;;;;;13.70;2.63;;;14.40;99.90;;;;;;5052492;28;20056;-56
2023/05/30 08:43:15;;;;;;;11.68;2.33;;;14.50;99.90;;;;;;5064391;28;20373;-57
2023/05/30 08:45:43;;;;;;;16.95;2.65;;;14.40;99.90;;;;;;5060338;28;20052;-58
2023/05/30 08:48:14;;;;;;;17.60;2.88;;;14.70;99.90;;;;;;5067093;28;20044;-57
2023/05/30 08:50:42;;;;;;;13.32;2.78;;;14.80;99.90;;;;;;5055961;28;20048;-56
2023/05/30 08:53:17;;;;;;;14.27;3.45;;;15.00;99.90;;;;;;5066616;28;20044;-59
2023/05/30 08:55:54;;;;;;;15.02;2.35;;;15.20;99.90;;;;;;5082293;28;20044;-58
2023/05/30 08:58:33;;;;;;;9.30;2.20;;;15.20;99.90;;;;;;5059356;28;20411;-57
2023/05/30 09:01:02;;;;;;;11.02;2.05;;;15.40;99.90;;;;;;5059374;28;20041;-58
2023/05/30 09:03:32;;;;;;;9.32;2.45;;;15.40;99.90;;;;;;5074112;28;20052;-58
2023/05/30 09:06:00;;;;;;;10.45;2.25;;;15.50;99.90;;;;;;5059441;28;20644;-58
2023/05/30 09:08:30;;;;;;;10.93;2.45;;;15.50;99.90;;;;;;5066885;28;20045;-58
2023/05/30 09:10:59;;;;;;;15.15;2.97;;;15.40;99.90;;;;;;5082517;28;20063;-58
2023/05/30 09:13:27;;;;;;;11.65;2.33;;;15.30;99.90;;;;;;5072014;28;20063;-57
2023/05/30 09:15:55;;;;;;;12.35;2.30;;;15.30;99.90;;;;;;5068759;28;20056;-58
2023/05/30 09:18:23;;;;;;;9.30;2.40;;;15.30;99.90;;;;;;5067534;28;20048;-58
2023/05/30 09:20:53;;;;;;;10.57;2.30;;;15.50;99.90;;;;;;5056299;28;20523;-59
2023/05/30 09:23:22;;;;;;;12.25;2.35;;;15.50;99.90;;;;;;5052309;28;20044;-58
2023/05/30 09:25:51;;;;;;;9.02;1.88;;;15.60;99.90;;;;;;5088797;28;20511;-58
2023/05/30 09:28:27;;;;;;;11.70;2.47;;;15.80;99.90;;;;;;5079533;28;20057;-58
2023/05/30 09:30:59;;;;;;;12.23;2.05;;;16.00;99.90;;;;;;5065790;28;20060;-58
2023/05/30 09:33:42;;;;;;;8.77;2.20;;;16.10;99.90;;;;;;5071778;28;20051;-58
2023/05/30 09:36:18;;;;;;;9.25;2.10;;;16.20;99.90;;;;;;5050121;28;20496;-58
2023/05/30 09:39:05;;;;;;;11.30;2.70;;;16.40;99.90;;;;;;5059330;28;20068;-59
2023/05/30 09:41:33;;;;;;;9.63;2.13;;;16.40;99.90;;;;;;5062312;28;20059;-58
2023/05/30 09:44:05;;;;;;;13.15;2.50;;;16.40;99.90;;;;;;5072844;28;20047;-57
2023/05/30 09:46:35;;;;;;;10.00;2.35;;;16.30;99.90;;;;;;5068289;28;20096;-59
2023/05/30 09:49:12;;;;;;;9.05;2.22;;;16.30;99.90;;;;;;5067895;28;20484;-57
2023/05/30 09:51:41;;;;;;;9.63;2.30;;;16.30;99.90;;;;;;5051360;28;20408;-56
2023/05/30 09:54:09;;;;;;;12.68;2.05;;;16.40;99.90;;;;;;5074936;28;20063;-57
2023/05/30 09:56:41;;;;;;;11.00;2.28;;;16.40;99.90;;;;;;5066791;28;20059;-58
2023/05/30 09:59:11;;;;;;;12.32;2.70;;;16.60;99.90;;;;;;5067653;28;20644;-57
2023/05/30 10:01:44;;;;;;;12.02;1.92;;;16.70;99.90;;;;;;5057725;28;20140;-57
2023/05/30 10:04:21;;;;;;;13.13;3.10;;;16.80;99.90;;;;;;5069074;28;20427;-58
2023/05/30 10:06:52;;;;;;;15.93;2.88;;;16.80;99.90;;;;;;5056854;28;20045;-57
2023/05/30 10:09:21;;;;;;;12.80;2.92;;;16.80;99.90;;;;;;5059154;28;20063;-59
2023/05/30 10:11:51;;;;;;;9.63;2.40;;;16.80;99.90;;;;;;5063732;28;20037;-57
2023/05/30 10:14:19;;;;;;;10.35;3.17;;;16.80;99.90;;;;;;5056955;28;20387;-58
2023/05/30 10:17:00;;;;;;;6.90;2.45;;;16.80;99.90;;;;;;5056084;28;20500;-59
2023/05/30 10:19:54;;;;;;;5.47;2.00;;;16.90;99.90;;;;;;5062958;28;20052;-58
2023/05/30 10:22:26;;;;;;;8.88;2.13;;;17.10;99.90;;;;;;5048762;28;20064;-58
2023/05/30 10:24:55;;;;;;;12.48;1.98;;;17.30;99.90;;;;;;5066292;28;20056;-59
2023/05/30 10:27:34;;;;;;;9.23;2.63;;;17.40;99.90;;;;;;5052623;28;20040;-57
2023/05/30 10:30:07;;;;;;;8.32;2.58;;;17.50;99.90;;;;;;5064114;28;20053;-57
2023/05/30 10:32:44;;;;;;;7.65;2.38;;;17.50;99.90;;;;;;5065626;28;20052;-58
2023/05/30 10:35:20;;;;;;;13.68;2.60;;;17.50;99.90;;;;;;5061208;28;20044;-59
2023/05/30 10:37:50;;;;;;;11.10;3.08;;;17.50;99.90;;;;;;5062944;28;20056;-58
2023/05/30 10:40:31;;;;;;;7.40;2.43;;;17.70;99.90;;;;;;5051924;28;20691;-60
2023/05/30 10:43:06;;;;;;;7.70;2.85;;;17.70;99.90;;;;;;5074485;28;20036;-61
2023/05/30 10:45:52;;;;;;;7.88;2.30;;;17.60;99.90;;;;;;5080876;28;20412;-58
2023/05/30 10:48:38;;;;;;;11.15;2.92;;;17.60;99.90;;;;;;5065517;28;20523;-59
2023/05/30 10:51:06;;;;;;;9.10;2.72;;;17.70;99.90;;;;;;5059463;28;20045;-59
2023/05/30 10:53:42;;;;;;;7.55;2.40;;;17.80;99.90;;;;;;5062319;28;20040;-58
2023/05/30 10:56:35;;;;;;;9.10;2.63;;;18.00;99.90;;;;;;5070724;28;20384;-58
2023/05/30 10:59:14;;;;;;;10.95;2.63;;;18.20;99.90;;;;;;5066976;28;20048;-59
2023/05/30 11:02:00;;;;;;;11.00;2.88;;;18.50;99.90;;;;;;5051587;28;20481;-57
2023/05/30 11:04:42;;;;;;;8.63;2.85;;;18.90;99.90;;;;;;5062807;28;20183;-59
2023/05/30 11:07:14;;;;;;;11.35;2.33;;;18.90;99.90;;;;;;5065541;28;20052;-59
2023/05/30 11:10:00;;;;;;;7.57;2.60;;;19.00;99.90;;;;;;5054633;28;20688;-58
2023/05/30 11:12:32;;;;;;;9.43;2.80;;;19.30;99.90;;;;;;5065441;28;20052;-57
2023/05/30 11:15:00;;;;;;;7.68;2.20;;;19.50;99.90;;;;;;5080786;28;20036;-59
2023/05/30 11:17:32;;;;;;;9.15;2.70;;;19.70;99.90;;;;;;5063787;28;20041;-58
2023/05/30 11:20:16;;;;;;;8.75;2.50;;;19.60;99.60;;;;;;5056719;28;20396;-60
2023/05/30 11:23:03;;;;;;;7.68;2.55;;;19.70;99.50;;;;;;5041768;28;20048;-58
2023/05/30 11:25:32;;;;;;;8.98;2.58;;;19.80;99.40;;;;;;5066075;28;20484;-59
2023/05/30 11:28:04;;;;;;;8.65;3.08;;;19.90;99.60;;;;;;5064226;28;20506;-59
2023/05/30 11:30:40;;;;;;;12.48;3.13;;;20.00;98.60;;;;;;5065881;28;20043;-60
2023/05/30 11:33:18;;;;;;;8.48;2.83;;;19.90;98.00;;;;;;5064541;28;20043;-59
2023/05/30 11:35:48;;;;;;;11.27;3.17;;;19.80;98.20;;;;;;5073156;28;20098;-60
2023/05/30 11:38:19;;;;;;;;;;;19.80;99.00;;;;;;5058836;28;20780;-59
2023/05/30 11:40:49;;;;;;;6.43;2.55;;;19.80;99.00;;;;;;5057252;28;19920;-61
2023/05/30 11:43:17;;;;;;;7.65;2.85;;;19.90;99.10;;;;;;5056673;28;20051;-59
2023/05/30 11:45:50;;;;;;;9.48;2.63;;;20.20;99.00;;;;;;5062597;28;20033;-60
2023/05/30 11:48:18;;;;;;;10.63;3.08;;;20.20;97.90;;;;;;5065031;28;20063;-59
2023/05/30 11:50:46;;;;;;;9.70;3.22;;;20.20;97.70;;;;;;5061827;28;20052;-59
2023/05/30 11:53:19;;;;;;;8.77;2.85;;;20.20;98.00;;;;;;5056738;28;20053;-60
2023/05/30 11:55:48;;;;;;;10.15;3.22;;;20.50;97.90;;;;;;5056100;28;20048;-61
2023/05/30 11:58:17;;;;;;;9.55;2.95;;;20.50;97.80;;;;;;5051763;28;20049;-60
2023/05/30 12:00:47;;;;;;;16.77;4.93;;;20.60;96.90;;;;;;5055156;28;20206;-59
2023/05/30 12:03:18;;;;;;;;;;;20.80;96.60;;;;;;5058777;28;20051;-61
2023/05/30 12:05:47;;;;;;;11.68;3.40;;;21.10;96.90;;;;;;5065698;28;19924;-60
2023/05/30 12:08:19;;;;;;;6.88;2.50;;;21.40;96.80;;;;;;5061577;28;20040;-59
2023/05/30 12:10:50;;;;;;;9.35;3.28;;;21.70;96.30;;;;;;5058709;28;20033;-60
2023/05/30 12:13:19;;;;;;;10.85;3.17;;;22.10;94.80;;;;;;5058430;28;20051;-61
2023/05/30 12:15:48;;;;;;;10.43;3.30;;;22.20;93.80;;;;;;5047033;28;20048;-60
2023/05/30 12:18:17;;;;;;;8.45;3.60;;;22.40;93.10;;;;;;5053064;28;20040;-59
2023/05/30 12:20:45;;;;;;;6.15;3.13;;;22.80;92.30;;;;;;5060317;28;20463;-58
2023/05/30 12:23:24;;;;;;;6.50;3.25;;;22.70;92.10;;;;;;5060468;28;20047;-59
2023/05/30 12:25:52;;;;;;;7.97;3.05;;;22.90;91.60;;;;;;5065282;28;20045;-58
2023/05/30 12:28:21;;;;;;;8.55;3.42;;;22.90;90.80;;;;;;5060244;28;21230;-59
2023/05/30 12:30:52;;;;;;;8.52;3.45;;;22.90;91.00;;;;;;5062479;28;20052;-59
2023/05/30 12:33:24;;;;;;;10.20;3.78;;;23.00;90.80;;;;;;5065705;28;20048;-59
2023/05/30 12:35:54;;;;;;;8.65;3.80;;;23.20;90.10;;;;;;5048820;28;20496;-58
2023/05/30 12:38:23;;;;;;;11.75;3.40;;;23.30;89.30;;;;;;5051845;28;20056;-58
2023/05/30 12:40:51;;;;;;;12.70;4.13;;;23.40;88.60;;;;;;5056469;28;20055;-61
2023/05/30 12:43:27;;;;;;;11.23;3.55;;;23.50;88.60;;;;;;5073613;28;20047;-59
2023/05/30 12:46:08;;;;;;;7.72;3.25;;;23.40;87.30;;;;;;5067182;28;20055;-59
2023/05/30 12:48:36;;;;;;;9.23;3.47;;;23.30;88.00;;;;;;5057556;28;20495;-61
2023/05/30 12:51:05;;;;;;;8.07;3.55;;;23.30;87.10;;;;;;5049284;28;20051;-59
2023/05/30 12:53:33;;;;;;;7.47;3.55;;;23.20;86.30;;;;;;5069331;28;20398;-59
2023/05/30 12:56:01;;;;;;;5.88;3.10;;;;;;;;;;5065623;28;20049;-59
2023/05/30 12:58:29;;;;;;;8.38;3.40;;;23.30;85.70;;;;;;5057650;28;20389;-59
2023/05/30 13:00:56;;;;;;;9.30;3.20;;;23.40;85.40;;;;;;5062922;28;20663;-59